Time;durP1;ratioP1;P1;durP2;ratioP2;P2;SDS_P1;SDS_P2;PMS_P1;PMS_P2;Temp;Humidity;BMP_temperature;BMP_pressure;BME280_temperature;BME280_humidity;BME280_pressure;Samples;Min_cycle;Max_cycle;Signal;HPM_P1;HPM_P2
2022/06/22 00:01:17;;;;;;;2.10;2.10;;;23.40;72.00;;;;;;5067669;28;43837;-70
2022/06/22 00:03:48;;;;;;;2.00;2.00;;;23.50;71.80;;;;;;5067712;28;43948;-70
2022/06/22 00:06:21;;;;;;;1.90;1.90;;;23.60;71.30;;;;;;5067335;28;44094;-70
2022/06/22 00:08:51;;;;;;;1.70;1.70;;;23.80;71.60;;;;;;5067322;28;44041;-69
2022/06/22 00:11:21;;;;;;;1.87;1.80;;;23.90;70.20;;;;;;5067324;28;43960;-69
2022/06/22 00:13:52;;;;;;;1.90;1.90;;;24.10;69.80;;;;;;5067263;28;44037;-71
2022/06/22 00:16:24;;;;;;;1.93;1.93;;;24.20;70.10;;;;;;5067120;28;43763;-70
2022/06/22 00:18:53;;;;;;;2.00;1.90;;;24.40;68.90;;;;;;5067067;28;43916;-69
2022/06/22 00:21:23;;;;;;;2.00;2.00;;;24.50;68.50;;;;;;5065616;28;43880;-69
2022/06/22 00:23:52;;;;;;;1.60;1.60;;;24.70;68.00;;;;;;5060863;28;43997;-70
2022/06/22 00:26:28;;;;;;;1.80;1.80;;;24.80;67.50;;;;;;5060638;28;44031;-70
2022/06/22 00:29:03;;;;;;;1.80;1.80;;;24.90;67.30;;;;;;5061705;28;43980;-70
2022/06/22 00:31:40;;;;;;;1.80;1.80;;;25.00;67.00;;;;;;5065453;28;43905;-70
2022/06/22 00:34:15;;;;;;;1.80;1.80;;;25.00;66.40;;;;;;5067195;28;43932;-70
2022/06/22 00:36:46;;;;;;;1.70;1.70;;;25.00;66.50;;;;;;5066835;28;44716;-70
2022/06/22 00:39:16;;;;;;;1.90;1.90;;;24.80;66.90;;;;;;5066192;28;44082;-70
2022/06/22 00:41:45;;;;;;;1.60;1.60;;;24.60;67.60;;;;;;5066573;28;44090;-70
2022/06/22 00:44:13;;;;;;;1.70;1.70;;;24.40;68.00;;;;;;5067252;28;43956;-69
2022/06/22 00:46:43;;;;;;;2.03;2.03;;;24.10;68.50;;;;;;5066971;28;43863;-71
2022/06/22 00:49:11;;;;;;;1.60;1.60;;;24.00;69.00;;;;;;5066533;28;43402;-70
2022/06/22 00:51:40;;;;;;;1.83;1.83;;;23.90;69.40;;;;;;5066919;28;43925;-70
2022/06/22 00:54:11;;;;;;;1.80;1.80;;;23.70;69.70;;;;;;5065932;28;44151;-69
2022/06/22 00:56:42;;;;;;;1.80;1.80;;;23.70;70.10;;;;;;5065270;28;45758;-70
2022/06/22 00:59:18;;;;;;;1.90;1.90;;;23.60;70.30;;;;;;5059952;28;43549;-70
2022/06/22 01:01:49;;;;;;;1.70;1.70;;;23.50;70.40;;;;;;5066683;28;43964;-70
2022/06/22 01:04:20;;;;;;;1.77;1.77;;;23.50;70.60;;;;;;5066904;28;43942;-70
2022/06/22 01:06:50;;;;;;;1.87;1.87;;;23.50;70.80;;;;;;5066464;28;43995;-69
2022/06/22 01:09:25;;;;;;;2.03;2.00;;;23.40;70.90;;;;;;5070132;28;44116;-70
2022/06/22 01:14:46;;;;;;;1.90;1.90;;;23.40;71.90;;;;;;5070023;28;43988;-70
2022/06/22 01:17:19;;;;;;;1.70;1.70;;;23.50;71.60;;;;;;5062988;28;43928;-70
2022/06/22 01:19:52;;;;;;;1.73;1.73;;;23.70;71.20;;;;;;5063756;28;43893;-69
2022/06/22 01:22:31;;;;;;;1.90;1.80;;;23.80;70.60;;;;;;5070106;28;43307;-70
2022/06/22 01:25:03;;;;;;;1.80;1.80;;;23.90;70.10;;;;;;5070445;28;43930;-70
2022/06/22 01:27:33;;;;;;;2.03;2.03;;;24.10;69.80;;;;;;5069879;28;43901;-69
2022/06/22 01:30:03;;;;;;;1.70;1.70;;;24.20;69.10;;;;;;5069453;28;43985;-70
2022/06/22 01:32:37;;;;;;;1.70;1.70;;;24.40;68.80;;;;;;5068375;28;43827;-69
2022/06/22 01:35:14;;;;;;;1.70;1.70;;;24.60;68.30;;;;;;5070064;28;43341;-70
2022/06/22 01:37:44;;;;;;;1.70;1.70;;;24.70;67.70;;;;;;5069796;28;43849;-70
2022/06/22 01:40:15;;;;;;;1.90;1.80;;;24.90;67.40;;;;;;5069619;28;43953;-69
2022/06/22 01:42:51;;;;;;;1.60;1.60;;;25.00;67.10;;;;;;5063372;28;43431;-69
2022/06/22 01:45:23;;;;;;;1.70;1.70;;;25.10;66.60;;;;;;5069903;28;43888;-69
2022/06/22 01:47:53;;;;;;;1.73;1.73;;;25.10;66.10;;;;;;5069087;28;43755;-71
2022/06/22 01:50:24;;;;;;;1.65;1.65;;;25.00;66.40;;;;;;5069313;28;43989;-70
2022/06/22 01:52:56;;;;;;;1.63;1.63;;;24.80;67.00;;;;;;5069497;28;43943;-70
2022/06/22 01:55:31;;;;;;;1.70;1.70;;;24.50;67.50;;;;;;5069952;28;43950;-70
2022/06/22 01:58:04;;;;;;;1.77;1.77;;;24.30;68.10;;;;;;5069321;28;44008;-70
2022/06/22 02:00:32;;;;;;;1.70;1.70;;;24.10;68.60;;;;;;5069311;28;44047;-68
2022/06/22 02:03:03;;;;;;;1.70;1.70;;;24.00;69.20;;;;;;5069298;28;43959;-70
2022/06/22 02:05:38;;;;;;;1.70;1.70;;;23.80;69.40;;;;;;5068223;28;43960;-69
2022/06/22 02:08:08;;;;;;;1.50;1.50;;;23.70;69.80;;;;;;5069264;28;44037;-69
2022/06/22 02:10:41;;;;;;;1.67;1.67;;;23.60;70.00;;;;;;5069002;28;43986;-70
2022/06/22 02:13:26;;;;;;;1.60;1.60;;;23.60;70.30;;;;;;5063099;28;43987;-70
2022/06/22 02:15:57;;;;;;;1.60;1.60;;;23.50;70.40;;;;;;5065103;28;43963;-70
2022/06/22 02:18:30;;;;;;;1.70;1.70;;;23.50;70.60;;;;;;5069000;28;43668;-69
2022/06/22 02:20:59;;;;;;;1.50;1.50;;;23.50;70.70;;;;;;5068556;28;43854;-69
2022/06/22 02:23:29;;;;;;;1.70;1.70;;;23.40;70.80;;;;;;5069378;28;44453;-70
2022/06/22 02:26:04;;;;;;;1.70;1.70;;;23.40;70.90;;;;;;5069562;28;44099;-70
2022/06/22 02:28:33;;;;;;;1.80;1.80;;;23.40;71.10;;;;;;5068750;28;43906;-69
2022/06/22 02:31:01;;;;;;;1.80;1.80;;;23.40;71.80;;;;;;5068639;28;43901;-69
2022/06/22 02:33:29;;;;;;;1.70;1.70;;;23.40;71.90;;;;;;5069093;28;44091;-69
2022/06/22 02:35:57;;;;;;;1.87;1.87;;;23.50;71.70;;;;;;5069020;28;44131;-69
2022/06/22 02:38:25;;;;;;;1.57;1.57;;;23.70;71.10;;;;;;5067097;28;46677;-69
2022/06/22 02:46:29;;;;;;;1.50;1.50;;;24.10;70.00;;;;;;5068999;28;43431;-69
2022/06/22 02:49:00;;;;;;;1.60;1.60;;;24.30;68.90;;;;;;5068423;28;43925;-70
2022/06/22 02:51:36;;;;;;;1.40;1.40;;;24.50;68.50;;;;;;5068570;28;43956;-69
2022/06/22 02:54:05;;;;;;;1.60;1.60;;;24.70;68.10;;;;;;5068564;28;43829;-69
2022/06/22 02:56:41;;;;;;;1.70;1.70;;;24.80;67.60;;;;;;5067215;28;44059;-69
2022/06/22 02:59:11;;;;;;;1.40;1.40;;;24.80;67.20;;;;;;5062083;28;44088;-70
2022/06/22 03:01:39;;;;;;;1.60;1.50;;;24.90;66.90;;;;;;5062157;28;43896;-70
2022/06/22 03:04:10;;;;;;;1.63;1.63;;;24.80;67.10;;;;;;5062000;28;43986;-69
2022/06/22 03:06:41;;;;;;;1.60;1.60;;;24.60;67.60;;;;;;5063173;28;44010;-71
2022/06/22 03:09:09;;;;;;;1.50;1.50;;;24.40;68.10;;;;;;5068105;28;43948;-69
2022/06/22 03:11:38;;;;;;;1.57;1.57;;;24.20;68.70;;;;;;5068039;28;43972;-70
2022/06/22 03:14:13;;;;;;;1.60;1.60;;;24.00;69.00;;;;;;5068271;28;43923;-70
2022/06/22 03:16:43;;;;;;;1.80;1.80;;;23.90;69.50;;;;;;5068498;28;43954;-69
2022/06/22 03:19:13;;;;;;;1.40;1.40;;;23.80;69.80;;;;;;5068000;28;44069;-70
2022/06/22 03:21:41;;;;;;;1.77;1.77;;;23.60;70.00;;;;;;5065916;28;44194;-69
2022/06/22 03:24:12;;;;;;;1.40;1.40;;;23.60;70.30;;;;;;5064914;28;44000;-70
2022/06/22 03:26:44;;;;;;;1.47;1.47;;;23.50;70.40;;;;;;5068627;28;43986;-69
2022/06/22 03:29:22;;;;;;;1.50;1.50;;;23.50;70.60;;;;;;5068311;28;43913;-69
2022/06/22 03:31:52;;;;;;;1.90;1.80;;;23.40;71.10;;;;;;5067482;28;43975;-69
2022/06/22 03:34:21;;;;;;;1.60;1.60;;;23.40;71.80;;;;;;5066556;28;44022;-69
2022/06/22 03:36:51;;;;;;;1.50;1.50;;;23.50;71.90;;;;;;5068572;28;43789;-70
2022/06/22 03:39:20;;;;;;;1.70;1.70;;;23.50;71.60;;;;;;5067971;28;45017;-70
2022/06/22 03:41:52;;;;;;;1.47;1.43;;;23.70;71.10;;;;;;5067866;28;43994;-68
2022/06/22 03:44:25;;;;;;;1.60;1.60;;;23.80;70.60;;;;;;5068043;28;43371;-69
2022/06/22 03:46:55;;;;;;;1.60;1.60;;;24.00;70.20;;;;;;5062202;28;44023;-69
2022/06/22 03:49:24;;;;;;;1.50;1.50;;;24.10;69.60;;;;;;5065860;28;46878;-69
2022/06/22 03:51:55;;;;;;;1.70;1.70;;;24.30;69.30;;;;;;5067591;28;44154;-70
2022/06/22 03:54:25;;;;;;;1.90;1.73;;;24.40;68.70;;;;;;5067940;28;43411;-70
2022/06/22 03:56:55;;;;;;;1.70;1.70;;;24.60;68.20;;;;;;5068326;28;43465;-70
2022/06/22 03:59:27;;;;;;;2.37;1.90;;;24.70;67.60;;;;;;5067473;28;43960;-69
2022/06/22 04:01:56;;;;;;;2.20;2.10;;;24.90;67.20;;;;;;5067339;28;44139;-69
2022/06/22 04:04:32;;;;;;;4.03;2.10;;;25.00;66.90;;;;;;5067788;28;43951;-70
2022/06/22 04:07:04;;;;;;;2.10;2.00;;;25.00;66.50;;;;;;5067900;28;44011;-69
2022/06/22 04:09:35;;;;;;;2.90;1.87;;;24.90;66.80;;;;;;5067470;28;44829;-70
2022/06/22 04:12:05;;;;;;;2.40;2.30;;;24.70;67.40;;;;;;5067219;28;43527;-70
2022/06/22 04:14:42;;;;;;;2.00;1.97;;;24.50;67.90;;;;;;5066026;28;43915;-69
2022/06/22 04:17:12;;;;;;;2.00;1.90;;;24.30;68.50;;;;;;5068031;28;43975;-70
2022/06/22 04:19:43;;;;;;;2.00;1.90;;;24.00;68.80;;;;;;5067290;28;44029;-70
2022/06/22 04:22:12;;;;;;;2.17;2.07;;;23.90;69.30;;;;;;5060805;28;43865;-69
2022/06/22 04:24:45;;;;;;;2.13;2.03;;;23.80;69.60;;;;;;5060196;28;44012;-70
2022/06/22 04:27:16;;;;;;;2.30;2.10;;;23.70;70.00;;;;;;5062194;28;44003;-69
2022/06/22 04:29:46;;;;;;;2.50;2.30;;;23.60;70.20;;;;;;5067137;28;43960;-71
2022/06/22 04:32:17;;;;;;;2.23;2.13;;;23.60;70.40;;;;;;5067186;28;43995;-69
2022/06/22 04:34:46;;;;;;;2.60;2.40;;;23.50;70.60;;;;;;5067330;28;43894;-69
2022/06/22 04:37:21;;;;;;;2.40;2.20;;;23.50;70.80;;;;;;5067469;28;44064;-70
2022/06/22 04:39:51;;;;;;;2.63;2.43;;;23.40;70.80;;;;;;5067117;28;43817;-70
2022/06/22 04:42:18;;;;;;;2.33;2.10;;;23.40;70.90;;;;;;5065789;28;43355;-70
2022/06/22 04:44:49;;;;;;;2.80;2.70;;;23.40;71.10;;;;;;5067167;28;43807;-69
2022/06/22 04:47:19;;;;;;;2.60;2.40;;;23.40;71.80;;;;;;5067375;28;43963;-70
2022/06/22 04:49:50;;;;;;;2.90;2.70;;;23.40;71.90;;;;;;5066848;28;44047;-70
2022/06/22 04:52:21;;;;;;;3.00;2.70;;;23.50;71.80;;;;;;5066879;28;43892;-69
2022/06/22 04:54:55;;;;;;;3.43;2.70;;;23.60;71.20;;;;;;5066952;28;43359;-70
2022/06/22 04:57:25;;;;;;;2.67;2.50;;;23.80;70.70;;;;;;5067211;28;43986;-70
2022/06/22 04:59:54;;;;;;;2.80;2.60;;;23.90;70.00;;;;;;5066964;28;43918;-70
2022/06/22 05:02:25;;;;;;;3.07;2.80;;;24.10;69.60;;;;;;5065120;28;44485;-69
2022/06/22 05:05:07;;;;;;;2.80;2.60;;;24.30;69.20;;;;;;5066898;28;43910;-71
2022/06/22 05:07:40;;;;;;;4.03;2.90;;;24.40;68.60;;;;;;5060941;28;43990;-70
2022/06/22 05:10:12;;;;;;;2.77;2.30;;;24.60;68.20;;;;;;5066581;28;43858;-70
2022/06/22 05:12:45;;;;;;;3.07;2.87;;;24.70;67.60;;;;;;5067003;28;43873;-70
2022/06/22 05:15:20;;;;;;;2.67;2.57;;;24.90;67.30;;;;;;5066234;28;43903;-70
2022/06/22 05:17:48;;;;;;;2.70;2.50;;;24.90;66.90;;;;;;5067102;28;43843;-70
2022/06/22 05:20:17;;;;;;;2.80;2.60;;;25.00;66.60;;;;;;5066297;28;44046;-69
2022/06/22 05:22:46;;;;;;;2.70;2.50;;;24.80;66.70;;;;;;5066300;28;44069;-71
2022/06/22 05:25:14;;;;;;;2.67;2.47;;;24.70;67.40;;;;;;5066719;28;44206;-69
2022/06/22 05:27:44;;;;;;;2.77;2.57;;;24.50;67.90;;;;;;5067174;28;43467;-69
2022/06/22 05:30:14;;;;;;;2.80;2.60;;;24.20;68.30;;;;;;5066564;28;44056;-69
2022/06/22 05:32:45;;;;;;;2.50;2.40;;;24.10;68.80;;;;;;5066159;28;44127;-69
2022/06/22 05:35:15;;;;;;;2.87;2.67;;;23.90;70.00;;;;;;5066755;28;43332;-70
2022/06/22 05:37:50;;;;;;;2.83;2.63;;;23.80;69.60;;;;;;5066739;28;43924;-70
2022/06/22 05:40:18;;;;;;;2.57;2.47;;;23.70;70.00;;;;;;5064935;28;45763;-69
2022/06/22 05:42:46;;;;;;;2.63;2.53;;;23.60;70.20;;;;;;5066070;28;43967;-69
2022/06/22 05:45:16;;;;;;;2.37;2.27;;;23.50;70.40;;;;;;5066607;28;43841;-69
2022/06/22 05:47:46;;;;;;;2.63;2.50;;;23.50;70.70;;;;;;5066769;28;43502;-69
2022/06/22 05:50:28;;;;;;;3.17;2.97;;;23.40;70.70;;;;;;5066220;28;43895;-71
2022/06/22 05:53:02;;;;;;;2.83;2.63;;;23.40;70.90;;;;;;5064886;28;43972;-70
2022/06/22 05:55:32;;;;;;;2.77;2.60;;;23.30;71.60;;;;;;5069693;28;43987;-69
2022/06/22 05:58:02;;;;;;;2.90;2.70;;;23.30;71.10;;;;;;5070159;28;43990;-70
2022/06/22 06:00:35;;;;;;;2.77;2.67;;;23.30;71.90;;;;;;5069283;28;44658;-69
2022/06/22 06:03:12;;;;;;;3.00;2.90;;;23.40;71.90;;;;;;5069359;28;43458;-69
2022/06/22 06:05:41;;;;;;;3.10;2.80;;;23.50;71.80;;;;;;5069926;28;43385;-70
2022/06/22 06:08:10;;;;;;;2.43;2.33;;;23.60;71.10;;;;;;5070377;28;43878;-69
2022/06/22 06:10:46;;;;;;;2.83;2.70;;;23.80;70.70;;;;;;5069400;28;43889;-69
2022/06/22 06:13:20;;;;;;;2.23;2.13;;;23.90;70.00;;;;;;5069227;28;44011;-69
2022/06/22 06:15:49;;;;;;;2.37;2.27;;;24.10;69.60;;;;;;5062568;28;43763;-69
2022/06/22 06:18:36;;;;;;;2.17;2.13;;;24.20;69.10;;;;;;5063089;28;44011;-71
2022/06/22 06:21:21;;;;;;;2.43;2.23;;;24.40;68.60;;;;;;5066332;28;44029;-69
2022/06/22 06:24:04;;;;;;;2.40;2.30;;;24.50;68.10;;;;;;5069235;28;44046;-70
2022/06/22 06:29:56;;;;;;;2.73;2.53;;;24.80;67.20;;;;;;5063351;28;44099;-69
2022/06/22 06:32:46;;;;;;;2.47;2.37;;;25.00;66.70;;;;;;5069105;28;44661;-69
2022/06/22 06:35:37;;;;;;;2.30;2.20;;;24.90;66.70;;;;;;5067701;28;44632;-69
2022/06/22 06:38:24;;;;;;;2.27;2.17;;;24.70;67.30;;;;;;5069346;28;43429;-69
2022/06/22 06:41:10;;;;;;;2.40;2.30;;;24.40;67.90;;;;;;5065804;28;44038;-70
2022/06/22 06:43:50;;;;;;;2.30;2.20;;;24.20;68.50;;;;;;5068876;28;43864;-70
2022/06/22 06:46:24;;;;;;;2.30;2.20;;;24.00;69.00;;;;;;5068793;28;44017;-69
2022/06/22 06:49:02;;;;;;;2.03;1.93;;;23.80;69.30;;;;;;5068264;28;43324;-69
2022/06/22 06:51:32;;;;;;;2.03;2.03;;;23.70;69.80;;;;;;5063699;28;44009;-70
2022/06/22 06:54:06;;;;;;;2.30;2.20;;;23.60;70.10;;;;;;5068557;28;43912;-70
2022/06/22 06:56:38;;;;;;;2.10;2.00;;;23.50;70.30;;;;;;5069092;28;44174;-69
2022/06/22 06:59:21;;;;;;;2.17;2.17;;;23.50;70.60;;;;;;5068593;28;44004;-68
2022/06/22 07:02:18;;;;;;;2.10;2.10;;;23.40;70.70;;;;;;5069051;28;43956;-70
2022/06/22 07:05:10;;;;;;;2.03;2.03;;;23.40;70.90;;;;;;5067439;28;44803;-70
2022/06/22 07:08:04;;;;;;;1.97;1.97;;;23.40;71.10;;;;;;5067032;28;44036;-69
2022/06/22 07:11:05;;;;;;;2.00;2.00;;;23.30;71.00;;;;;;5068193;28;43959;-69
2022/06/22 07:13:55;;;;;;;2.30;2.30;;;23.30;72.00;;;;;;5068785;28;43473;-70
2022/06/22 07:16:58;;;;;;;2.40;2.30;;;23.40;72.10;;;;;;5068276;28;43986;-71
2022/06/22 07:19:27;;;;;;;1.87;1.87;;;23.50;71.70;;;;;;5062811;28;43885;-70
2022/06/22 07:21:59;;;;;;;2.17;2.07;;;23.60;71.10;;;;;;5068305;28;44052;-69
2022/06/22 07:24:30;;;;;;;2.37;2.27;;;23.80;70.60;;;;;;5068801;28;43936;-70
2022/06/22 07:27:01;;;;;;;2.40;2.30;;;23.90;70.00;;;;;;5068032;28;43901;-70
2022/06/22 07:29:34;;;;;;;2.00;2.00;;;24.10;69.60;;;;;;5068244;28;44002;-70
2022/06/22 07:32:06;;;;;;;2.07;2.03;;;24.20;69.20;;;;;;5066675;28;43423;-70
2022/06/22 07:34:41;;;;;;;2.00;2.00;;;24.30;68.60;;;;;;5068976;28;43946;-70
2022/06/22 07:37:16;;;;;;;1.90;1.90;;;24.50;68.20;;;;;;5068139;28;43989;-70
2022/06/22 07:39:48;;;;;;;1.70;1.70;;;24.60;68.50;;;;;;5068145;28;43921;-70
2022/06/22 07:42:16;;;;;;;2.17;2.10;;;24.70;67.30;;;;;;5068137;28;43885;-71
2022/06/22 07:44:48;;;;;;;1.97;1.90;;;24.90;67.00;;;;;;5068406;28;43991;-69
2022/06/22 07:47:29;;;;;;;1.77;1.77;;;25.00;66.90;;;;;;5067722;28;44085;-70
2022/06/22 07:50:02;;;;;;;2.13;2.10;;;24.90;66.70;;;;;;5067855;28;43880;-70
2022/06/22 07:52:34;;;;;;;1.90;1.90;;;24.70;67.30;;;;;;5067969;28;43987;-69
2022/06/22 07:55:04;;;;;;;1.90;1.90;;;24.40;68.50;;;;;;5066762;28;43844;-69
2022/06/22 07:57:35;;;;;;;1.87;1.87;;;24.20;68.50;;;;;;5067647;28;44729;-69
2022/06/22 08:00:05;;;;;;;1.80;1.80;;;24.00;69.00;;;;;;5067711;28;44128;-69
2022/06/22 08:02:43;;;;;;;1.77;1.77;;;23.90;69.40;;;;;;5064120;28;43889;-69
2022/06/22 08:05:13;;;;;;;1.80;1.80;;;23.70;69.70;;;;;;5067110;28;43506;-70
2022/06/22 08:07:43;;;;;;;2.00;2.00;;;23.60;70.00;;;;;;5067695;28;43925;-69
2022/06/22 08:10:15;;;;;;;2.00;2.00;;;23.50;70.20;;;;;;5067649;28;43988;-70
2022/06/22 08:12:54;;;;;;;1.90;1.80;;;23.50;70.50;;;;;;5067824;28;44003;-69
2022/06/22 08:15:22;;;;;;;1.70;1.70;;;23.40;70.70;;;;;;5067861;28;44046;-70
2022/06/22 08:17:52;;;;;;;1.90;1.90;;;23.40;70.80;;;;;;5067060;28;44795;-69
2022/06/22 08:20:21;;;;;;;1.80;1.80;;;23.40;71.00;;;;;;5067264;28;43987;-69
2022/06/22 08:22:49;;;;;;;2.00;2.00;;;23.30;71.00;;;;;;5067179;28;43343;-70
2022/06/22 08:25:32;;;;;;;2.00;2.00;;;23.30;71.10;;;;;;5067807;28;44005;-69
2022/06/22 08:28:08;;;;;;;1.80;1.80;;;23.30;71.20;;;;;;5067252;28;43976;-70
2022/06/22 08:30:44;;;;;;;1.77;1.77;;;23.30;71.40;;;;;;5067436;28;44017;-69
2022/06/22 08:33:22;;;;;;;2.00;2.00;;;23.30;72.60;;;;;;5067310;28;44047;-70
2022/06/22 08:36:08;;;;;;;1.70;1.70;;;23.40;72.20;;;;;;5067591;28;43888;-70
2022/06/22 08:38:54;;;;;;;1.97;1.97;;;23.50;71.80;;;;;;5051475;22;43973;-78
2022/06/22 08:41:43;;;;;;;1.90;1.90;;;23.70;71.00;;;;;;5041675;28;44801;-78
2022/06/22 08:44:20;;;;;;;1.80;1.80;;;23.90;70.40;;;;;;5019007;28;43968;-77
2022/06/22 08:47:13;;;;;;;1.70;1.70;;;24.00;69.90;;;;;;5025469;28;43994;-79
2022/06/22 08:50:04;;;;;;;1.67;1.67;;;24.10;69.30;;;;;;5023537;28;44299;-77
2022/06/22 08:52:51;;;;;;;2.00;1.90;;;24.30;69.00;;;;;;5026237;28;44058;-78
2022/06/22 08:56:07;;;;;;;1.50;1.50;;;24.40;68.30;;;;;;5025684;28;43833;-77
2022/06/22 08:59:20;;;;;;;1.90;1.90;;;24.60;67.70;;;;;;5023325;28;44203;-78
2022/06/22 09:02:02;;;;;;;1.70;1.70;;;24.70;67.40;;;;;;5074044;22;43967;-70
2022/06/22 09:04:55;;;;;;;1.73;1.73;;;24.60;67.60;;;;;;5063936;28;44012;-69
2022/06/22 09:07:47;;;;;;;2.00;1.80;;;24.40;68.10;;;;;;5066695;28;43518;-70
2022/06/22 09:10:53;;;;;;;1.77;1.77;;;24.10;68.70;;;;;;5061206;28;43941;-69
2022/06/22 09:13:46;;;;;;;1.50;1.50;;;23.90;69.20;;;;;;5066419;28;44865;-69
2022/06/22 09:16:46;;;;;;;1.90;1.90;;;23.70;69.60;;;;;;5066369;28;43976;-70
2022/06/22 09:19:34;;;;;;;1.60;1.60;;;23.60;70.10;;;;;;5060727;28;43926;-69
2022/06/22 09:22:27;;;;;;;1.80;1.80;;;23.50;70.40;;;;;;5066904;28;43963;-70
2022/06/22 09:25:05;;;;;;;1.63;1.63;;;23.40;70.70;;;;;;5066363;28;44836;-69
2022/06/22 09:27:42;;;;;;;1.60;1.60;;;23.40;70.90;;;;;;5066546;28;43955;-70
2022/06/22 09:30:23;;;;;;;1.70;1.70;;;23.40;71.10;;;;;;5070345;28;43887;-70
2022/06/22 09:33:13;;;;;;;1.80;1.80;;;23.30;71.20;;;;;;5070272;28;44011;-69
2022/06/22 09:36:23;;;;;;;1.60;1.60;;;23.30;71.20;;;;;;5063575;28;43960;-70
2022/06/22 09:39:00;;;;;;;1.47;1.47;;;23.30;71.40;;;;;;5064830;28;43931;-70
2022/06/22 09:41:36;;;;;;;1.70;1.70;;;23.20;71.90;;;;;;5063817;28;43877;-69
2022/06/22 09:44:36;;;;;;;1.67;1.67;;;23.20;72.30;;;;;;5051743;28;44075;-70
2022/06/22 09:47:33;;;;;;;1.70;1.70;;;23.30;72.00;;;;;;5069344;28;43600;-69
2022/06/22 09:50:25;;;;;;;1.63;1.63;;;23.50;71.60;;;;;;5049921;28;46170;-70
2022/06/22 09:53:19;;;;;;;1.40;1.40;;;23.60;71.00;;;;;;5067073;28;43410;-69
2022/06/22 09:58:58;;;;;;;1.63;1.63;;;24.00;69.80;;;;;;5069291;28;44943;-69
2022/06/22 10:01:29;;;;;;;1.63;1.63;;;24.10;69.40;;;;;;5047096;28;45522;-69
2022/06/22 10:04:37;;;;;;;1.67;1.67;;;24.20;69.00;;;;;;5049155;28;44048;-70
2022/06/22 10:07:22;;;;;;;1.60;1.60;;;24.40;68.50;;;;;;5049277;28;44217;-70
2022/06/22 10:10:00;;;;;;;1.53;1.53;;;24.50;68.00;;;;;;5049183;28;43650;-70
2022/06/22 10:12:38;;;;;;;1.70;1.60;;;24.60;67.70;;;;;;5049193;28;43966;-70
2022/06/22 10:15:18;;;;;;;1.40;1.40;;;24.70;67.40;;;;;;5049209;28;43878;-70
2022/06/22 10:18:08;;;;;;;1.50;1.50;;;24.60;67.50;;;;;;5049413;28;43987;-69
2022/06/22 10:20:46;;;;;;;1.50;1.50;;;24.40;67.90;;;;;;5047738;28;45085;-70
2022/06/22 10:23:28;;;;;;;1.40;1.40;;;24.20;68.60;;;;;;5048674;28;43682;-68
2022/06/22 10:26:02;;;;;;;1.60;1.60;;;24.00;69.00;;;;;;5048998;28;43904;-70
2022/06/22 10:28:58;;;;;;;1.50;1.50;;;23.90;69.50;;;;;;5049343;28;43959;-69
2022/06/22 10:31:35;;;;;;;1.40;1.40;;;23.70;69.90;;;;;;5019606;28;43841;-69
2022/06/22 10:34:25;;;;;;;1.50;1.50;;;23.60;70.30;;;;;;5042112;28;43411;-70
2022/06/22 10:37:28;;;;;;;1.37;1.37;;;23.50;70.60;;;;;;5048942;28;43969;-70
2022/06/22 10:46:01;;;;;;;1.60;1.60;;;23.30;71.20;;;;;;5048636;28;43384;-70
2022/06/22 10:48:53;;;;;;;1.50;1.50;;;23.30;71.40;;;;;;5048704;28;43397;-70
2022/06/22 10:51:31;;;;;;;1.70;1.70;;;23.20;71.30;;;;;;5048976;28;43896;-69
2022/06/22 10:54:31;;;;;;;1.63;1.63;;;23.20;71.50;;;;;;5048417;28;44234;-70
2022/06/22 10:57:19;;;;;;;1.53;1.53;;;23.20;72.30;;;;;;5048314;28;44002;-69
2022/06/22 11:00:22;;;;;;;1.60;1.60;;;23.30;72.40;;;;;;5048398;28;43926;-69
2022/06/22 11:03:20;;;;;;;1.43;1.43;;;23.40;72.80;;;;;;5048291;28;43945;-69
2022/06/22 11:06:27;;;;;;;1.67;1.67;;;23.50;71.60;;;;;;5048291;28;44836;-70
2022/06/22 11:09:30;;;;;;;1.70;1.70;;;23.70;71.00;;;;;;5048495;28;43999;-69
2022/06/22 11:12:34;;;;;;;1.60;1.60;;;23.90;70.20;;;;;;5033771;28;43980;-68
2022/06/22 11:15:34;;;;;;;3.17;1.80;;;24.00;69.60;;;;;;5048507;28;43958;-68
2022/06/22 11:18:24;;;;;;;2.43;1.70;;;24.20;69.30;;;;;;5037397;28;43939;-70
2022/06/22 11:21:06;;;;;;;1.70;1.70;;;24.30;69.00;;;;;;5031516;28;43441;-70
2022/06/22 11:23:44;;;;;;;2.00;1.90;;;24.40;68.60;;;;;;5039155;28;43905;-70
2022/06/22 11:32:45;;;;;;;2.00;1.90;;;24.50;68.10;;;;;;5046353;28;43931;-70
2022/06/22 11:35:32;;;;;;;1.57;1.57;;;24.30;68.70;;;;;;5048092;28;43391;-69
2022/06/22 11:38:20;;;;;;;1.63;1.63;;;24.10;69.10;;;;;;5048332;28;43355;-69
2022/06/22 11:40:55;;;;;;;1.80;1.80;;;23.90;69.40;;;;;;5044686;28;44568;-69
2022/06/22 11:43:37;;;;;;;1.60;1.60;;;23.70;69.80;;;;;;5047709;28;44636;-69
2022/06/22 11:46:08;;;;;;;1.60;1.60;;;23.60;70.20;;;;;;5047656;28;43881;-70
2022/06/22 11:49:09;;;;;;;1.50;1.50;;;23.50;70.40;;;;;;5047945;28;44005;-70
2022/06/22 11:52:19;;;;;;;1.53;1.53;;;23.50;70.80;;;;;;5047472;28;44043;-70
2022/06/22 11:54:57;;;;;;;1.90;1.90;;;23.40;71.00;;;;;;5047417;28;43852;-69
2022/06/22 11:57:40;;;;;;;1.70;1.70;;;23.30;71.10;;;;;;5047626;28;43400;-70
2022/06/22 12:00:12;;;;;;;1.80;1.80;;;23.30;71.20;;;;;;5047921;28;43944;-69
2022/06/22 12:03:07;;;;;;;1.60;1.60;;;23.30;71.40;;;;;;5025841;28;44054;-70
2022/06/22 12:05:54;;;;;;;1.70;1.70;;;23.30;71.40;;;;;;5027162;28;44012;-69
2022/06/22 12:08:39;;;;;;;1.80;1.80;;;23.30;71.40;;;;;;5027394;28;43890;-69
2022/06/22 12:11:13;;;;;;;1.60;1.60;;;23.30;71.60;;;;;;5016411;28;43947;-69
2022/06/22 12:16:32;;;;;;;1.80;1.80;;;23.20;72.50;;;;;;5027004;28;43984;-70
2022/06/22 12:19:07;;;;;;;1.50;1.50;;;23.40;72.30;;;;;;5027297;28;44073;-69
2022/06/22 12:21:43;;;;;;;1.70;1.60;;;23.50;71.80;;;;;;5027612;28;43965;-69
2022/06/22 12:24:15;;;;;;;1.50;1.50;;;23.60;71.40;;;;;;5027251;28;43932;-69
2022/06/22 12:26:48;;;;;;;1.80;1.80;;;23.70;70.80;;;;;;5035813;28;44455;-69
2022/06/22 12:29:31;;;;;;;1.90;1.90;;;23.90;70.30;;;;;;5021339;28;43957;-69
2022/06/22 12:32:13;;;;;;;1.47;1.47;;;24.00;69.70;;;;;;5027537;28;44011;-70
2022/06/22 12:34:45;;;;;;;1.60;1.60;;;24.10;69.50;;;;;;5027063;28;44073;-70
2022/06/22 12:37:16;;;;;;;1.83;1.73;;;24.20;69.20;;;;;;5027050;28;43794;-69
2022/06/22 12:39:47;;;;;;;1.50;1.50;;;24.30;69.00;;;;;;5026824;28;44047;-69
2022/06/22 12:42:44;;;;;;;1.57;1.57;;;24.30;68.70;;;;;;5027178;28;43907;-70
2022/06/22 12:45:21;;;;;;;1.60;1.60;;;24.30;68.60;;;;;;5009420;28;43988;-69
2022/06/22 12:48:17;;;;;;;1.70;1.70;;;24.30;69.10;;;;;;5026861;28;43995;-69
2022/06/22 12:50:57;;;;;;;1.50;1.50;;;24.10;69.50;;;;;;4970745;28;43934;-69
2022/06/22 12:53:28;;;;;;;1.63;1.63;;;23.90;69.50;;;;;;5027100;28;43440;-70
2022/06/22 12:56:00;;;;;;;1.80;1.80;;;23.70;69.80;;;;;;5026468;28;44791;-70
2022/06/22 12:58:29;;;;;;;1.80;1.80;;;23.60;70.20;;;;;;5025051;28;43952;-69
2022/06/22 13:00:58;;;;;;;1.67;1.63;;;23.50;70.40;;;;;;5037776;28;44079;-70
2022/06/22 13:03:40;;;;;;;1.70;1.70;;;23.50;70.80;;;;;;5068196;28;43996;-68
2022/06/22 13:06:08;;;;;;;1.73;1.73;;;23.40;70.90;;;;;;5070269;28;43947;-69
2022/06/22 13:08:36;;;;;;;1.80;1.80;;;23.40;71.20;;;;;;5070265;28;44039;-69
2022/06/22 13:11:07;;;;;;;1.57;1.57;;;23.30;71.20;;;;;;5070420;28;43988;-70
2022/06/22 13:13:46;;;;;;;1.60;1.60;;;23.30;71.30;;;;;;5065160;28;43987;-71
2022/06/22 13:16:15;;;;;;;1.50;1.50;;;23.30;71.50;;;;;;5070200;28;43612;-70
2022/06/22 13:18:46;;;;;;;1.60;1.60;;;23.30;71.60;;;;;;5070469;28;44386;-70
2022/06/22 13:21:16;;;;;;;1.60;1.57;;;23.20;71.50;;;;;;5070176;28;43915;-69
2022/06/22 13:23:48;;;;;;;1.53;1.53;;;23.20;72.50;;;;;;5070505;28;43850;-68
2022/06/22 13:26:33;;;;;;;1.80;1.80;;;23.30;72.60;;;;;;5069829;28;43770;-70
2022/06/22 13:29:09;;;;;;;1.73;1.73;;;23.40;72.20;;;;;;5069902;28;43949;-69
2022/06/22 13:31:39;;;;;;;1.67;1.67;;;23.50;71.70;;;;;;5051987;28;43421;-70
2022/06/22 13:34:09;;;;;;;1.80;1.80;;;23.70;71.50;;;;;;5063698;28;44023;-69
2022/06/22 13:36:41;;;;;;;1.70;1.60;;;23.70;70.90;;;;;;5063473;28;43893;-69
2022/06/22 13:39:18;;;;;;;1.73;1.73;;;23.90;70.50;;;;;;5064190;28;43996;-69
2022/06/22 13:41:54;;;;;;;1.60;1.60;;;24.00;70.00;;;;;;5069921;28;43354;-68
2022/06/22 13:44:40;;;;;;;1.80;1.70;;;24.10;69.60;;;;;;5070207;28;44354;-70
2022/06/22 13:47:38;;;;;;;1.60;1.60;;;24.20;69.50;;;;;;5069501;28;43905;-69
2022/06/22 13:50:26;;;;;;;1.90;1.80;;;24.30;69.20;;;;;;5069575;28;43444;-70
2022/06/22 13:52:55;;;;;;;1.73;1.73;;;24.40;69.00;;;;;;5069949;28;44012;-69
2022/06/22 13:55:42;;;;;;;1.90;1.80;;;24.40;68.60;;;;;;5070235;28;43455;-69
2022/06/22 13:58:14;;;;;;;1.70;1.70;;;24.40;68.40;;;;;;5069881;28;44004;-69
2022/06/22 14:00:57;;;;;;;1.70;1.70;;;24.30;68.80;;;;;;5069527;28;43484;-69
2022/06/22 14:03:31;;;;;;;1.60;1.60;;;24.20;69.40;;;;;;5069575;28;44041;-69
2022/06/22 14:06:01;;;;;;;1.53;1.53;;;24.00;69.40;;;;;;5069967;28;43940;-69
2022/06/22 14:08:49;;;;;;;1.53;1.53;;;23.90;69.80;;;;;;5069332;28;43865;-70